Terminal Aerodrome Forecast
Issued by NWS

Current Version | Previous Version | Text Only | Print | Product List | Glossary On
Versions: 1 2 3 4 5 6 7 8 9 10 11 12 13 14 15 16 17 18 19 20 21 22 23 24 25 26 27 28 29 30 31 32 33 34 35 36 37 38 39 40 41 42 43 44 45 46 47 48 49 50
000 FTUS41 KBOX 281932 AAA TAFBED TAF AMD KBED 281932Z 2820/2918 36008KT 1SM -SN BR BKN009 OVC016 FM282100 34008KT 1 1/2SM -SN BR BKN010 OVC020 FM290100 33008KT 2SM -SN BR BKN010 OVC020 FM290300 33012KT P6SM OVC025 FM290600 34010KT P6SM OVC050 FM291100 34004KT P6SM BKN050 FM291400 33005KT P6SM SCT050 SCT250=

USA.gov is the U.S. government's official web portal to all federal, state and local government web resources and services.